Defoe, Kentucky
Current Conditions -  °F | °C
As of 3:53 PM on Tuesday 21 Oct 2014 (Local Time) from KFFT Reporting Station
Overcast Overcast  
Wind Chill: 56°   Ceiling: 5000
Heat Index: 56°   Visibility: 10mi
Dew Point: 40°   Wind: 9mph
Humidity: 55%   Direction: 320°NW
Pressure: 30.06"   Gusts: NA
Location:  38.369°N, 85.0622°W
Report Text: KFFT 211953Z AUTO 32008KT 10SM FEW040 BKN050 OVC060 13/04 A3006 RMK AO2 SLP178 T01330044
Loading
Personal Weather Stations






























Interactive Weather Map New forecast layout! Learn more

10-Day Weather Forecast

Advertisements
Track Severe Weather on mobile